createdAt,value
2019-02-22T00:01:21.049Z,9.50
2019-02-22T00:03:49.537Z,9.50
2019-02-22T00:06:18.881Z,9.50
2019-02-22T00:08:47.360Z,9.40
2019-02-22T00:11:15.799Z,9.40
2019-02-22T00:13:44.256Z,9.30
2019-02-22T00:16:12.700Z,9.30
2019-02-22T00:18:41.164Z,9.40
2019-02-22T00:21:09.628Z,9.30
2019-02-22T00:23:38.131Z,9.30
2019-02-22T00:26:06.570Z,9.30
2019-02-22T00:28:36.070Z,9.30
2019-02-22T00:31:04.634Z,9.30
2019-02-22T00:33:33.072Z,9.30
2019-02-22T00:36:03.202Z,9.40
2019-02-22T00:38:31.692Z,9.20
2019-02-22T00:41:00.147Z,9.30
2019-02-22T00:43:28.654Z,9.30
2019-02-22T00:45:57.093Z,9.30
2019-02-22T00:48:25.529Z,9.30
2019-02-22T00:50:59.551Z,9.30
2019-02-22T00:53:25.934Z,9.20
2019-02-22T00:55:55.916Z,9.20
2019-02-22T00:58:24.492Z,9.20
2019-02-22T01:00:53.012Z,9.20
2019-02-22T01:03:21.458Z,9.20
2019-02-22T01:05:50.054Z,9.20
2019-02-22T01:08:23.029Z,9.20
2019-02-22T01:10:48.643Z,9.20
2019-02-22T01:13:17.124Z,9.20
2019-02-22T01:15:45.601Z,9.20
2019-02-22T01:18:21.304Z,9.20
2019-02-22T01:20:54.513Z,9.20
2019-02-22T01:23:20.002Z,9.30
2019-02-22T01:25:48.445Z,9.30
2019-02-22T01:28:16.888Z,9.30
2019-02-22T01:30:45.362Z,9.20
2019-02-22T01:33:13.870Z,9.20
2019-02-22T01:35:43.940Z,9.30
2019-02-22T01:38:12.397Z,9.30
2019-02-22T01:40:43.928Z,9.20
2019-02-22T01:43:11.296Z,9.20
2019-02-22T01:45:39.849Z,9.20
2019-02-22T01:48:08.361Z,9.20
2019-02-22T01:50:36.855Z,9.20
2019-02-22T01:53:06.597Z,9.20
2019-02-22T01:55:35.017Z,9.20
2019-02-22T01:58:03.834Z,9.20
2019-02-22T02:00:32.382Z,9.20
2019-02-22T02:03:01.189Z,9.20
2019-02-22T02:05:29.655Z,9.20
2019-02-22T02:07:58.092Z,9.10
2019-02-22T02:10:26.616Z,9.20
2019-02-22T02:12:55.224Z,9.30
2019-02-22T02:15:23.813Z,9.10
2019-02-22T02:17:52.585Z,9.20
2019-02-22T02:20:21.580Z,9.20
2019-02-22T02:22:50.385Z,9.20
2019-02-22T02:25:22.944Z,9.10
2019-02-22T02:27:50.694Z,9.20
2019-02-22T02:30:19.171Z,9.10
2019-02-22T02:32:47.924Z,9.20
2019-02-22T02:35:16.433Z,9.10
2019-02-22T02:37:46.514Z,9.10
2019-02-22T02:40:14.956Z,9.10
2019-02-22T02:42:44.827Z,9.00
2019-02-22T02:45:13.350Z,9.00
2019-02-22T02:47:41.880Z,9.10
2019-02-22T02:50:11.889Z,9.10
2019-02-22T02:52:41.248Z,9.00
2019-02-22T02:55:30.623Z,9.00
2019-02-22T02:57:59.160Z,9.10
2019-02-22T03:00:27.678Z,9.10
2019-02-22T03:02:56.135Z,9.10
2019-02-22T03:05:26.241Z,9.10
2019-02-22T03:07:59.920Z,9.10
2019-02-22T03:10:28.428Z,9.10
2019-02-22T03:12:56.896Z,9.10
2019-02-22T03:15:25.385Z,9.10
2019-02-22T03:17:55.356Z,9.10
2019-02-22T03:20:23.814Z,9.10
2019-02-22T03:22:53.857Z,9.00
2019-02-22T03:25:22.317Z,9.00
2019-02-22T03:27:50.835Z,9.00
2019-02-22T03:30:19.331Z,9.00
2019-02-22T03:32:47.819Z,9.00
2019-02-22T03:35:16.261Z,9.00
2019-02-22T03:37:44.691Z,9.00
2019-02-22T03:40:14.853Z,9.00
2019-02-22T03:42:43.308Z,9.00
2019-02-22T03:45:11.932Z,9.00
2019-02-22T03:47:40.367Z,9.10
2019-02-22T03:50:09.041Z,9.00
2019-02-22T03:52:39.135Z,9.00
2019-02-22T03:55:10.752Z,9.00
2019-02-22T03:57:39.294Z,9.00
2019-02-22T04:00:12.371Z,9.00
2019-02-22T04:02:42.169Z,9.00
2019-02-22T04:05:12.245Z,9.00
2019-02-22T04:07:40.669Z,8.90
2019-02-22T04:10:09.578Z,9.00
2019-02-22T04:12:38.153Z,9.00
2019-02-22T04:15:09.372Z,9.00
2019-02-22T04:17:37.858Z,9.00
2019-02-22T04:20:07.838Z,9.00
2019-02-22T04:22:36.309Z,9.00
2019-02-22T04:25:06.234Z,9.00
2019-02-22T04:27:34.720Z,9.00
2019-02-22T04:30:03.505Z,9.00
2019-02-22T04:32:33.493Z,9.00
2019-02-22T04:35:02.029Z,9.10
2019-02-22T04:37:32.119Z,9.10
2019-02-22T04:40:00.610Z,9.20
2019-02-22T04:42:29.128Z,9.10
2019-02-22T04:44:57.578Z,9.10
2019-02-22T04:47:26.086Z,9.10
2019-02-22T04:49:56.142Z,9.20
2019-02-22T04:52:24.603Z,9.30
2019-02-22T04:54:53.088Z,9.30
2019-02-22T04:57:21.535Z,9.30
2019-02-22T04:59:49.960Z,9.30
2019-02-22T05:02:18.949Z,9.30
2019-02-22T05:04:47.463Z,9.30
2019-02-22T05:07:17.461Z,9.30
2019-02-22T05:09:45.936Z,9.40
2019-02-22T05:12:16.327Z,9.30
2019-02-22T05:14:44.920Z,9.40
2019-02-22T05:17:20.604Z,9.40
2019-02-22T05:19:49.040Z,9.30
2019-02-22T05:22:20.718Z,9.30
2019-02-22T05:24:50.863Z,9.30
2019-02-22T05:27:19.450Z,9.20
2019-02-22T05:29:49.923Z,9.30
2019-02-22T05:32:18.111Z,9.30
2019-02-22T05:34:46.568Z,9.30
2019-02-22T05:37:15.045Z,9.20
2019-02-22T05:39:43.493Z,9.20
2019-02-22T05:42:22.497Z,9.30
2019-02-22T05:44:42.241Z,9.30
2019-02-22T05:47:10.715Z,9.30
2019-02-22T05:49:39.353Z,9.30
2019-02-22T05:52:07.872Z,9.30
2019-02-22T05:54:36.346Z,9.30
2019-02-22T05:57:04.876Z,9.30
2019-02-22T05:59:33.551Z,9.30
2019-02-22T06:02:05.256Z,9.30
2019-02-22T06:04:33.708Z,9.30
2019-02-22T06:07:02.153Z,9.30
2019-02-22T06:09:30.718Z,9.30
2019-02-22T06:11:59.223Z,9.30
2019-02-22T06:14:28.522Z,9.30
2019-02-22T06:16:56.966Z,9.30
2019-02-22T06:19:25.459Z,9.40
2019-02-22T06:21:54.249Z,9.30
2019-02-22T06:24:22.705Z,9.40
2019-02-22T06:26:51.217Z,9.40
2019-02-22T06:29:19.681Z,9.30
2019-02-22T06:31:48.111Z,9.30
2019-02-22T06:34:16.576Z,9.30
2019-02-22T06:40:07.913Z,9.30
2019-02-22T06:42:45.198Z,9.40
2019-02-22T06:45:08.267Z,9.40
2019-02-22T06:47:37.475Z,9.40
2019-02-22T06:50:08.769Z,9.40
2019-02-22T06:52:37.276Z,9.40
2019-02-22T06:55:06.218Z,9.40
2019-02-22T06:57:34.775Z,9.40
2019-02-22T07:00:05.305Z,9.40
2019-02-22T07:02:34.446Z,9.40
2019-02-22T07:05:02.890Z,9.40
2019-02-22T07:07:31.360Z,9.40
2019-02-22T07:09:59.787Z,9.40
2019-02-22T07:12:32.862Z,9.40
2019-02-22T07:15:01.357Z,9.40
2019-02-22T07:17:29.966Z,9.40
2019-02-22T07:19:58.441Z,9.30
2019-02-22T07:22:26.893Z,9.30
2019-02-22T07:24:55.514Z,9.30
2019-02-22T07:27:24.037Z,9.40
2019-02-22T07:29:52.487Z,9.50
2019-02-22T07:32:21.017Z,9.40
2019-02-22T07:34:49.452Z,9.40
2019-02-22T07:37:20.050Z,9.40
2019-02-22T07:39:48.164Z,9.50
2019-02-22T07:42:16.601Z,9.50
2019-02-22T07:44:47.202Z,9.60
2019-02-22T07:47:15.644Z,9.40
2019-02-22T07:49:44.111Z,9.50
2019-02-22T07:52:12.620Z,9.40
2019-02-22T07:54:41.098Z,9.50
2019-02-22T07:57:09.544Z,9.50
2019-02-22T07:59:37.996Z,9.60
2019-02-22T08:02:06.802Z,9.60
2019-02-22T08:04:35.294Z,9.60
2019-02-22T08:07:03.775Z,9.60
2019-02-22T08:09:32.957Z,9.70
2019-02-22T08:12:02.885Z,9.70
2019-02-22T08:14:31.466Z,9.60
2019-02-22T08:17:00.045Z,9.60
2019-02-22T08:19:28.611Z,9.60
2019-02-22T08:21:57.075Z,9.60
2019-02-22T08:24:26.062Z,9.70
2019-02-22T08:26:59.915Z,9.80
2019-02-22T08:29:32.009Z,9.80
2019-02-22T08:32:00.185Z,9.90
2019-02-22T08:34:28.723Z,9.90
2019-02-22T08:36:57.174Z,9.90
2019-02-22T08:39:28.490Z,9.90
2019-02-22T08:41:57.046Z,9.90
2019-02-22T08:44:25.489Z,10.00
2019-02-22T08:46:54.037Z,10.00
2019-02-22T08:49:22.475Z,9.90
2019-02-22T08:51:50.945Z,9.90
2019-02-22T08:54:19.401Z,9.90
2019-02-22T08:56:47.862Z,10.10
2019-02-22T08:59:17.841Z,10.10
2019-02-22T09:01:46.299Z,10.20
2019-02-22T09:04:19.592Z,10.20
2019-02-22T09:06:44.992Z,10.40
2019-02-22T09:09:13.424Z,10.50
2019-02-22T09:11:41.868Z,10.40
2019-02-22T09:14:10.328Z,10.60
2019-02-22T09:16:41.676Z,10.60
2019-02-22T09:19:10.167Z,10.70
2019-02-22T09:21:38.635Z,10.60
2019-02-22T09:24:08.643Z,10.80
2019-02-22T09:26:37.075Z,10.90
2019-02-22T09:29:05.558Z,11.10
2019-02-22T09:31:34.066Z,11.10
2019-02-22T09:34:02.515Z,11.20
2019-02-22T09:36:30.940Z,11.20
2019-02-22T09:38:59.392Z,10.80
2019-02-22T09:41:27.855Z,11.00
2019-02-22T09:43:56.319Z,11.30
2019-02-22T09:46:24.792Z,11.30
2019-02-22T09:48:55.629Z,11.30
2019-02-22T09:51:24.109Z,11.10
2019-02-22T09:53:54.196Z,11.10
2019-02-22T09:56:22.824Z,11.20
2019-02-22T09:58:51.585Z,11.30
2019-02-22T10:01:21.661Z,11.30
2019-02-22T10:03:50.079Z,11.50
2019-02-22T10:06:18.526Z,11.70
2019-02-22T10:08:46.983Z,11.70
2019-02-22T10:11:15.492Z,11.80
2019-02-22T10:13:44.676Z,11.90
2019-02-22T10:16:14.175Z,11.70
2019-02-22T10:18:42.721Z,11.80
2019-02-22T10:21:11.171Z,11.80
2019-02-22T10:23:41.209Z,12.00
2019-02-22T10:26:09.720Z,11.80
2019-02-22T10:28:38.213Z,11.90
2019-02-22T10:31:08.332Z,12.10
2019-02-22T10:33:37.280Z,12.20
2019-02-22T10:36:08.176Z,12.80
2019-02-22T10:38:39.165Z,13.10
2019-02-22T10:41:07.632Z,13.00
2019-02-22T10:43:38.739Z,12.60
2019-02-22T10:46:07.169Z,12.50
2019-02-22T10:48:35.653Z,12.30
2019-02-22T10:51:09.467Z,12.40
2019-02-22T10:53:37.948Z,12.60
2019-02-22T10:56:09.267Z,13.20
2019-02-22T10:58:37.823Z,13.50
2019-02-22T11:01:06.393Z,13.20
2019-02-22T11:03:34.877Z,13.20
2019-02-22T11:06:03.463Z,13.10
2019-02-22T11:08:31.964Z,13.20
2019-02-22T11:11:00.416Z,13.20
2019-02-22T11:13:28.956Z,13.70
2019-02-22T11:15:58.633Z,14.20
2019-02-22T11:18:27.216Z,14.60
2019-02-22T11:20:55.714Z,14.20
2019-02-22T11:23:24.172Z,14.80
2019-02-22T11:25:52.648Z,16.00
2019-02-22T11:28:22.808Z,16.20
2019-02-22T11:30:51.336Z,16.90
2019-02-22T11:33:19.899Z,17.40
2019-02-22T11:35:48.513Z,17.00
2019-02-22T11:38:16.946Z,17.00
2019-02-22T11:40:45.389Z,18.00
2019-02-22T11:43:13.857Z,18.10
2019-02-22T11:45:42.615Z,16.40
2019-02-22T11:48:11.079Z,15.40
2019-02-22T11:50:39.671Z,15.30
2019-02-22T11:53:08.159Z,14.80
2019-02-22T11:55:36.707Z,14.50
2019-02-22T11:58:05.230Z,14.40
2019-02-22T12:00:34.019Z,14.20
2019-02-22T12:03:21.118Z,14.30
2019-02-22T12:05:34.443Z,14.20
2019-02-22T12:08:03.663Z,14.00
2019-02-22T12:10:32.249Z,14.00
2019-02-22T12:13:01.711Z,14.40
2019-02-22T12:15:31.555Z,16.50
2019-02-22T12:18:00.166Z,16.10
2019-02-22T12:20:28.596Z,15.20
2019-02-22T12:22:57.160Z,14.70
2019-02-22T12:25:27.204Z,14.40
2019-02-22T12:27:57.243Z,14.30
2019-02-22T12:30:25.910Z,14.40
2019-02-22T12:32:54.497Z,14.70
2019-02-22T12:35:23.074Z,15.50
2019-02-22T12:37:51.616Z,15.00
2019-02-22T12:40:20.288Z,15.20
2019-02-22T12:42:48.817Z,14.90
2019-02-22T12:45:17.340Z,15.70
2019-02-22T12:47:46.053Z,16.50
2019-02-22T12:50:16.241Z,17.30
2019-02-22T12:52:44.782Z,18.40
2019-02-22T12:55:13.477Z,17.50
2019-02-22T12:57:42.524Z,19.70
2019-02-22T13:00:19.159Z,18.40
2019-02-22T13:02:47.685Z,16.00
2019-02-22T13:05:18.834Z,14.60
2019-02-22T13:07:47.279Z,14.30
2019-02-22T13:10:15.789Z,14.40
2019-02-22T13:12:44.332Z,14.50
2019-02-22T13:15:14.488Z,14.50
2019-02-22T13:17:43.189Z,14.30
2019-02-22T13:20:11.752Z,14.30
2019-02-22T13:22:40.207Z,14.50
2019-02-22T13:25:11.019Z,15.40
2019-02-22T13:27:39.464Z,15.30
2019-02-22T13:30:15.241Z,16.60
2019-02-22T13:32:43.688Z,15.90
2019-02-22T13:35:12.860Z,19.60
2019-02-22T13:37:41.669Z,22.90
2019-02-22T13:40:15.433Z,20.00
2019-02-22T13:42:45.646Z,18.90
2019-02-22T13:45:25.952Z,17.30
2019-02-22T13:47:45.149Z,17.80
2019-02-22T13:50:17.985Z,18.20
2019-02-22T13:52:48.263Z,16.50
2019-02-22T13:55:16.878Z,15.60
2019-02-22T13:57:45.405Z,15.10
2019-02-22T14:00:16.249Z,15.00
2019-02-22T14:02:44.699Z,14.80
2019-02-22T14:05:13.564Z,14.40
2019-02-22T14:08:01.328Z,14.40
2019-02-22T14:10:29.790Z,14.40
2019-02-22T14:12:58.214Z,14.40
2019-02-22T14:15:36.980Z,14.40
2019-02-22T14:17:56.913Z,14.50
2019-02-22T14:20:25.496Z,14.50
2019-02-22T14:22:55.973Z,14.30
2019-02-22T14:25:24.506Z,14.30
2019-02-22T14:27:53.151Z,14.40
2019-02-22T14:30:21.741Z,14.40
2019-02-22T14:32:50.296Z,14.40
2019-02-22T14:35:18.826Z,14.40
2019-02-22T14:37:47.319Z,15.00
2019-02-22T14:40:15.908Z,14.30
2019-02-22T14:42:45.914Z,14.00
2019-02-22T14:45:15.508Z,13.80
2019-02-22T14:47:47.761Z,13.80
2019-02-22T14:50:18.425Z,14.00
2019-02-22T14:52:49.071Z,14.00
2019-02-22T14:55:17.561Z,14.10
2019-02-22T14:57:46.095Z,14.10
2019-02-22T15:00:19.786Z,13.90
2019-02-22T15:02:48.374Z,13.80
2019-02-22T15:05:16.935Z,13.80
2019-02-22T15:07:45.523Z,13.70
2019-02-22T15:10:19.342Z,13.70
2019-02-22T15:12:47.953Z,13.70
2019-02-22T15:15:18.204Z,13.70
2019-02-22T15:17:59.832Z,13.80
2019-02-22T15:20:28.347Z,13.90
2019-02-22T15:22:56.969Z,14.00
2019-02-22T15:25:25.675Z,14.10
2019-02-22T15:27:54.296Z,14.20
2019-02-22T15:30:22.812Z,14.50
2019-02-22T15:33:05.631Z,14.50
2019-02-22T15:35:29.379Z,15.00
2019-02-22T15:37:57.878Z,15.60
2019-02-22T15:40:27.610Z,16.10
2019-02-22T15:45:32.689Z,14.50
2019-02-22T15:48:03.226Z,13.90
2019-02-22T15:50:31.732Z,13.70
2019-02-22T15:53:00.265Z,13.60
2019-02-22T15:55:28.897Z,13.40
2019-02-22T15:57:57.334Z,13.50
2019-02-22T16:00:36.307Z,13.40
2019-02-22T16:03:05.044Z,13.40
2019-02-22T16:05:35.241Z,13.60
2019-02-22T16:08:16.906Z,13.50
2019-02-22T16:10:51.626Z,13.50
2019-02-22T16:13:15.739Z,13.40
2019-02-22T16:15:50.931Z,13.40
2019-02-22T16:18:23.244Z,13.30
2019-02-22T16:20:46.884Z,13.20
2019-02-22T16:23:15.580Z,13.20
2019-02-22T16:25:44.097Z,13.10
2019-02-22T16:28:12.725Z,13.00
2019-02-22T16:30:41.431Z,13.00
2019-02-22T16:33:09.972Z,13.00
2019-02-22T16:35:42.454Z,13.00
2019-02-22T16:38:12.537Z,12.90
2019-02-22T16:40:40.976Z,12.90
2019-02-22T16:43:10.984Z,12.90
2019-02-22T16:45:39.451Z,12.80
2019-02-22T16:48:07.992Z,12.80
2019-02-22T16:50:36.584Z,12.70
2019-02-22T16:53:05.111Z,12.60
2019-02-22T16:55:33.659Z,12.70
2019-02-22T16:58:02.189Z,12.60
2019-02-22T17:00:30.804Z,12.60
2019-02-22T17:03:06.715Z,12.60
2019-02-22T17:05:32.906Z,12.60
2019-02-22T17:08:01.494Z,12.50
2019-02-22T17:10:29.958Z,12.40
2019-02-22T17:12:58.549Z,12.40
2019-02-22T17:15:29.885Z,12.40
2019-02-22T17:18:10.671Z,12.40
2019-02-22T17:20:30.163Z,12.30
2019-02-22T17:22:58.663Z,12.40
2019-02-22T17:25:28.699Z,12.40
2019-02-22T17:27:57.355Z,12.30
2019-02-22T17:30:30.850Z,12.30
2019-02-22T17:33:05.182Z,12.30
2019-02-22T17:35:34.231Z,12.30
2019-02-22T17:38:09.516Z,12.30
2019-02-22T17:40:41.118Z,12.20
2019-02-22T17:43:09.646Z,12.20
2019-02-22T17:45:39.618Z,12.20
2019-02-22T17:48:15.209Z,12.20
2019-02-22T17:50:45.853Z,12.30
2019-02-22T17:53:21.732Z,12.20
2019-02-22T17:55:51.221Z,12.20
2019-02-22T17:58:24.773Z,12.10
2019-02-22T18:00:59.320Z,12.10
2019-02-22T18:06:00.770Z,12.00
2019-02-22T18:08:29.350Z,12.00
2019-02-22T18:10:57.915Z,12.10
2019-02-22T18:13:26.435Z,12.00
2019-02-22T18:15:54.994Z,12.00
2019-02-22T18:18:23.535Z,12.00
2019-02-22T18:20:52.048Z,12.00
2019-02-22T18:23:20.645Z,11.90
2019-02-22T18:25:49.283Z,11.90
2019-02-22T18:28:17.879Z,11.90
2019-02-22T18:30:46.521Z,11.80
2019-02-22T18:33:15.151Z,11.70
2019-02-22T18:35:43.678Z,11.60
2019-02-22T18:38:12.286Z,11.60
2019-02-22T18:40:40.935Z,11.50
2019-02-22T18:43:09.547Z,11.30
2019-02-22T18:45:38.176Z,11.30
2019-02-22T18:48:06.831Z,11.20
2019-02-22T18:50:35.304Z,11.10
2019-02-22T18:53:03.783Z,11.00
2019-02-22T18:55:32.389Z,11.00
2019-02-22T18:58:00.992Z,10.90
2019-02-22T19:00:29.639Z,10.80
2019-02-22T19:02:58.188Z,10.80
2019-02-22T19:05:26.850Z,10.70
2019-02-22T19:07:55.472Z,10.70
2019-02-22T19:10:24.065Z,10.70
2019-02-22T19:12:52.555Z,10.60
2019-02-22T19:15:21.344Z,10.60
2019-02-22T19:17:50.057Z,10.60
2019-02-22T19:20:20.123Z,10.40
2019-02-22T19:22:48.697Z,10.40
2019-02-22T19:25:17.243Z,10.30
2019-02-22T19:27:46.711Z,10.40
2019-02-22T19:30:20.601Z,10.20
2019-02-22T19:32:49.223Z,10.20
2019-02-22T19:35:18.659Z,10.30
2019-02-22T19:37:47.344Z,10.30
2019-02-22T19:40:18.989Z,10.20
2019-02-22T19:42:47.485Z,10.20
2019-02-22T19:45:15.972Z,10.10
2019-02-22T19:47:44.606Z,10.00
2019-02-22T19:50:14.265Z,10.00
2019-02-22T19:52:42.864Z,10.00
2019-02-22T19:55:13.557Z,10.00
2019-02-22T19:57:42.102Z,10.10
2019-02-22T20:00:13.514Z,10.00
2019-02-22T20:02:42.116Z,10.00
2019-02-22T20:05:12.710Z,9.90
2019-02-22T20:07:41.299Z,9.80
2019-02-22T20:10:18.241Z,9.80
2019-02-22T20:12:45.473Z,9.80
2019-02-22T20:15:16.570Z,9.80
2019-02-22T20:17:53.738Z,9.70
2019-02-22T20:20:18.004Z,9.70
2019-02-22T20:22:46.640Z,9.70
2019-02-22T20:25:15.318Z,9.60
2019-02-22T20:27:43.958Z,9.70
2019-02-22T20:30:16.474Z,9.60
2019-02-22T20:32:45.147Z,9.60
2019-02-22T20:35:16.948Z,9.60
2019-02-22T20:37:52.882Z,9.60
2019-02-22T20:40:16.885Z,9.60
2019-02-22T20:42:45.475Z,9.50
2019-02-22T20:45:14.203Z,9.60
2019-02-22T20:47:42.897Z,9.40
2019-02-22T20:50:14.738Z,9.40
2019-02-22T20:52:43.429Z,9.30
2019-02-22T20:55:12.280Z,9.40
2019-02-22T20:57:41.002Z,9.40
2019-02-22T21:00:24.191Z,9.40
2019-02-22T21:02:52.762Z,9.40
2019-02-22T21:05:21.293Z,9.20
2019-02-22T21:07:50.719Z,9.20
2019-02-22T21:10:20.330Z,9.20
2019-02-22T21:12:49.060Z,9.20
2019-02-22T21:15:17.727Z,9.20
2019-02-22T21:17:46.319Z,9.20
2019-02-22T21:20:16.653Z,9.00
2019-02-22T21:22:45.312Z,9.10
2019-02-22T21:25:13.933Z,9.00
2019-02-22T21:27:42.631Z,8.90
2019-02-22T21:30:21.820Z,8.90
2019-02-22T21:32:50.329Z,9.10
2019-02-22T21:35:19.075Z,9.00
2019-02-22T21:37:48.244Z,8.90
2019-02-22T21:40:16.809Z,9.10
2019-02-22T21:42:45.270Z,8.90
2019-02-22T21:45:15.219Z,8.90
2019-02-22T21:47:54.251Z,8.90
2019-02-22T21:50:17.307Z,8.70
2019-02-22T21:52:45.766Z,8.70
2019-02-22T21:55:15.306Z,8.70
2019-02-22T21:57:43.968Z,8.70
2019-02-22T22:00:20.712Z,8.60
2019-02-22T22:02:49.178Z,8.60
2019-02-22T22:05:17.812Z,8.60
2019-02-22T22:07:46.449Z,8.60
2019-02-22T22:10:15.211Z,8.50
2019-02-22T22:12:43.766Z,8.60
2019-02-22T22:15:14.079Z,8.50
2019-02-22T22:17:42.628Z,8.40
2019-02-22T22:20:11.794Z,8.40
2019-02-22T22:22:40.507Z,8.40
2019-02-22T22:25:16.337Z,8.50
2019-02-22T22:27:45.611Z,8.50
2019-02-22T22:30:15.221Z,8.50
2019-02-22T22:32:43.929Z,8.40
2019-02-22T22:35:16.488Z,8.30
2019-02-22T22:37:45.042Z,8.20
2019-02-22T22:40:13.535Z,8.40
2019-02-22T22:42:42.104Z,8.30
2019-02-22T22:45:16.296Z,8.20
2019-02-22T22:47:45.055Z,8.20
2019-02-22T22:50:15.535Z,8.10
2019-02-22T22:52:44.202Z,8.10
2019-02-22T22:55:13.162Z,8.20
2019-02-22T22:57:41.805Z,8.20
2019-02-22T23:00:40.361Z,8.10
2019-02-22T23:03:09.266Z,8.10
2019-02-22T23:05:37.851Z,8.00
2019-02-22T23:08:06.434Z,7.90
2019-02-22T23:10:35.088Z,8.00
2019-02-22T23:13:03.721Z,7.90
2019-02-22T23:15:32.488Z,7.90
2019-02-22T23:18:00.938Z,7.90
2019-02-22T23:20:30.382Z,7.90
2019-02-22T23:22:59.112Z,7.80
2019-02-22T23:25:27.642Z,7.80
2019-02-22T23:27:56.241Z,7.80
2019-02-22T23:30:24.874Z,7.60
2019-02-22T23:32:53.426Z,7.60
2019-02-22T23:35:22.091Z,7.80
2019-02-22T23:37:51.100Z,7.70
2019-02-22T23:40:19.712Z,7.60
2019-02-22T23:42:48.971Z,7.70
2019-02-22T23:45:17.425Z,7.70
2019-02-22T23:47:45.900Z,7.70
2019-02-22T23:50:14.388Z,7.60
2019-02-22T23:52:42.909Z,7.70
2019-02-22T23:55:12.046Z,7.50
2019-02-22T23:57:40.500Z,7.50
